createdAt,value
2022-08-15T00:00:25.648Z,23.20
2022-08-15T00:01:44.247Z,23.27
2022-08-15T00:03:00.338Z,23.23
2022-08-15T00:04:04.806Z,23.20
2022-08-15T00:05:06.856Z,23.18
2022-08-15T00:06:39.066Z,23.14
2022-08-15T00:07:48.227Z,23.10
2022-08-15T00:08:54.533Z,23.08
2022-08-15T00:09:56.932Z,23.03
2022-08-15T00:11:35.753Z,23.01
2022-08-15T00:12:39.889Z,22.98
2022-08-15T00:13:43.029Z,22.94
2022-08-15T00:14:45.620Z,22.93
2022-08-15T00:15:49.091Z,22.91
2022-08-15T00:16:53.165Z,22.81
2022-08-15T00:17:56.989Z,22.86
2022-08-15T00:18:59.270Z,22.90
2022-08-15T00:20:01.046Z,22.91
2022-08-15T00:21:04.226Z,22.88
2022-08-15T00:22:17.992Z,22.88
2022-08-15T00:23:27.617Z,22.86
2022-08-15T00:24:33.383Z,22.72
2022-08-15T00:25:38.626Z,22.81
2022-08-15T00:26:55.116Z,22.80
2022-08-15T00:27:58.122Z,22.79
2022-08-15T00:29:04.259Z,22.81
2022-08-15T00:30:07.652Z,22.80
2022-08-15T00:31:11.764Z,22.79
2022-08-15T00:33:03.021Z,22.78
2022-08-15T00:33:42.849Z,22.75
2022-08-15T00:34:44.685Z,22.81
2022-08-15T00:35:55.829Z,22.79
2022-08-15T00:36:58.686Z,22.78
2022-08-15T00:38:11.775Z,22.76
2022-08-15T00:39:16.583Z,22.76
2022-08-15T00:40:19.198Z,22.73
2022-08-15T00:41:39.905Z,22.71
2022-08-15T00:42:42.098Z,22.71
2022-08-15T00:43:54.747Z,22.74
2022-08-15T00:45:07.268Z,22.73
2022-08-15T00:46:21.998Z,22.74
2022-08-15T00:47:30.195Z,22.75
2022-08-15T00:48:42.785Z,22.77
2022-08-15T00:50:02.802Z,22.86
2022-08-15T00:51:11.008Z,22.88
2022-08-15T00:52:30.412Z,22.88
2022-08-15T00:53:33.104Z,22.87
2022-08-15T00:54:57.976Z,22.89
2022-08-15T00:56:00.192Z,22.91
2022-08-15T00:57:10.391Z,22.92
2022-08-15T00:58:34.083Z,23.00
2022-08-15T00:59:37.096Z,23.01
2022-08-15T01:00:48.156Z,22.99
2022-08-15T01:02:01.016Z,22.90
2022-08-15T01:03:14.150Z,22.87
2022-08-15T01:04:19.300Z,22.86
2022-08-15T01:05:21.682Z,22.86
2022-08-15T01:06:31.447Z,22.81
2022-08-15T01:07:33.747Z,22.65
2022-08-15T01:08:39.526Z,22.64
2022-08-15T01:09:44.998Z,22.55
2022-08-15T01:10:59.784Z,22.47
2022-08-15T01:12:14.422Z,22.36
2022-08-15T01:14:05.687Z,22.23
2022-08-15T01:14:57.118Z,22.15
2022-08-15T01:15:59.355Z,22.08
2022-08-15T01:17:01.887Z,21.66
2022-08-15T01:18:23.057Z,21.92
2022-08-15T01:19:30.309Z,21.82
2022-08-15T01:20:36.237Z,21.68
2022-08-15T01:22:04.660Z,21.61
2022-08-15T01:23:18.948Z,21.63
2022-08-15T01:25:16.163Z,21.76
2022-08-15T01:26:38.920Z,21.81
2022-08-15T01:27:43.965Z,21.90
2022-08-15T01:28:47.430Z,21.91
2022-08-15T01:29:54.867Z,21.94
2022-08-15T01:31:04.346Z,21.96
2022-08-15T01:32:06.369Z,21.92
2022-08-15T01:33:08.822Z,21.98
2022-08-15T01:34:13.378Z,22.00
2022-08-15T01:35:15.865Z,22.01
2022-08-15T01:36:32.828Z,22.07
2022-08-15T01:37:56.842Z,22.09
2022-08-15T01:39:12.634Z,22.12
2022-08-15T01:40:51.889Z,22.04
2022-08-15T01:42:08.972Z,22.08
2022-08-15T01:43:12.717Z,22.02
2022-08-15T01:44:33.440Z,22.00
2022-08-15T01:45:42.593Z,21.97
2022-08-15T01:46:56.983Z,21.95
2022-08-15T01:48:06.151Z,21.87
2022-08-15T01:49:33.655Z,21.87
2022-08-15T01:50:52.592Z,21.79
2022-08-15T01:51:59.499Z,21.84
2022-08-15T01:53:16.340Z,21.81
2022-08-15T01:54:39.842Z,21.82
2022-08-15T01:55:53.613Z,21.83
2022-08-15T01:56:57.952Z,21.82
2022-08-15T01:58:05.154Z,21.81
2022-08-15T01:59:20.359Z,21.80
2022-08-15T02:00:24.252Z,21.75
2022-08-15T02:01:53.871Z,21.75
2022-08-15T02:02:57.581Z,21.74
2022-08-15T02:03:59.616Z,21.73
2022-08-15T02:05:02.707Z,21.72
2022-08-15T02:06:35.233Z,21.67
2022-08-15T02:07:37.539Z,21.64
2022-08-15T02:08:53.639Z,21.65
2022-08-15T02:09:56.965Z,21.69
2022-08-15T02:10:58.974Z,21.72
2022-08-15T02:12:02.599Z,21.73
2022-08-15T02:13:24.842Z,21.74
2022-08-15T02:14:37.430Z,21.76
2022-08-15T02:15:40.201Z,21.78
2022-08-15T02:16:45.606Z,21.78
2022-08-15T02:17:48.305Z,21.79
2022-08-15T02:18:52.172Z,21.81
2022-08-15T02:19:54.212Z,21.87
2022-08-15T02:20:58.193Z,21.79
2022-08-15T02:21:59.865Z,21.79
2022-08-15T02:23:01.818Z,21.69
2022-08-15T02:24:05.349Z,21.77
2022-08-15T02:25:23.538Z,21.78
2022-08-15T02:26:26.415Z,21.77
2022-08-15T02:27:32.493Z,21.73
2022-08-15T02:28:36.753Z,21.72
2022-08-15T02:29:52.887Z,21.64
2022-08-15T02:30:55.600Z,21.64
2022-08-15T02:32:05.272Z,21.66
2022-08-15T02:33:07.753Z,21.62
2022-08-15T02:34:10.966Z,21.58
2022-08-15T02:35:13.955Z,21.58
2022-08-15T02:36:30.651Z,21.50
2022-08-15T02:37:36.292Z,21.49
2022-08-15T02:38:47.499Z,21.47
2022-08-15T02:39:58.027Z,21.49
2022-08-15T02:41:16.454Z,21.47
2022-08-15T02:42:20.342Z,21.49
2022-08-15T02:43:24.058Z,21.49
2022-08-15T02:44:25.608Z,21.47
2022-08-15T02:45:28.579Z,21.45
2022-08-15T02:46:31.585Z,21.40
2022-08-15T02:47:35.465Z,21.35
2022-08-15T02:48:40.924Z,21.33
2022-08-15T02:49:49.307Z,21.33
2022-08-15T02:50:52.205Z,21.31
2022-08-15T02:51:54.684Z,21.30
2022-08-15T02:52:56.405Z,21.31
2022-08-15T02:53:58.076Z,21.24
2022-08-15T02:55:02.803Z,21.34
2022-08-15T02:56:07.470Z,21.34
2022-08-15T02:57:12.534Z,21.34
2022-08-15T02:58:28.718Z,21.35
2022-08-15T02:59:31.859Z,21.35
2022-08-15T03:00:33.500Z,21.35
2022-08-15T03:01:43.337Z,21.34
2022-08-15T03:02:57.641Z,21.34
2022-08-15T03:03:59.206Z,21.31
2022-08-15T03:05:03.666Z,21.24
2022-08-15T03:06:16.695Z,21.28
2022-08-15T03:07:30.977Z,21.26
2022-08-15T03:08:32.586Z,20.96
2022-08-15T03:09:36.449Z,21.19
2022-08-15T03:10:39.550Z,21.19
2022-08-15T03:11:56.728Z,21.19
2022-08-15T03:13:06.442Z,21.18
2022-08-15T03:14:33.728Z,21.18
2022-08-15T03:15:57.059Z,21.17
2022-08-15T03:17:01.047Z,21.17
2022-08-15T03:18:03.407Z,21.19
2022-08-15T03:19:05.176Z,21.18
2022-08-15T03:20:09.680Z,21.20
2022-08-15T03:21:20.617Z,21.24
2022-08-15T03:22:45.699Z,21.23
2022-08-15T03:23:50.553Z,21.24
2022-08-15T03:24:53.755Z,21.27
2022-08-15T03:26:00.304Z,21.26
2022-08-15T03:27:02.007Z,21.25
2022-08-15T03:28:04.057Z,21.23
2022-08-15T03:29:31.570Z,21.23
2022-08-15T03:30:38.969Z,21.22
2022-08-15T03:31:44.941Z,21.24
2022-08-15T03:32:54.176Z,21.25
2022-08-15T03:33:58.788Z,21.26
2022-08-15T03:35:09.296Z,21.27
2022-08-15T03:36:12.645Z,21.25
2022-08-15T03:37:21.674Z,21.25
2022-08-15T03:38:48.677Z,21.25
2022-08-15T03:39:44.786Z,21.18
2022-08-15T03:40:50.127Z,21.13
2022-08-15T03:41:56.204Z,21.12
2022-08-15T03:43:23.168Z,21.09
2022-08-15T03:44:27.743Z,21.04
2022-08-15T03:45:35.264Z,20.98
2022-08-15T03:46:37.103Z,20.97
2022-08-15T03:47:38.668Z,20.98
2022-08-15T03:48:55.438Z,21.02
2022-08-15T03:50:23.794Z,21.03
2022-08-15T03:51:22.472Z,21.02
2022-08-15T03:52:32.703Z,20.96
2022-08-15T03:53:44.999Z,20.94
2022-08-15T03:54:49.701Z,20.93
2022-08-15T03:55:54.416Z,20.90
2022-08-15T03:56:56.905Z,20.90
2022-08-15T03:58:02.647Z,20.94
2022-08-15T03:59:05.672Z,20.86
2022-08-15T04:00:15.603Z,20.86
2022-08-15T04:01:29.454Z,20.86
2022-08-15T04:02:32.540Z,20.85
2022-08-15T04:03:34.234Z,20.84
2022-08-15T04:04:36.639Z,20.80
2022-08-15T04:05:50.914Z,20.78
2022-08-15T04:07:00.937Z,20.77
2022-08-15T04:08:06.173Z,20.76
2022-08-15T04:09:30.061Z,20.86
2022-08-15T04:10:38.762Z,20.90
2022-08-15T04:11:43.645Z,20.79
2022-08-15T04:12:48.330Z,20.66
2022-08-15T04:13:52.084Z,20.55
2022-08-15T04:14:53.700Z,20.57
2022-08-15T04:17:00.292Z,20.58
2022-08-15T04:17:21.055Z,20.56
2022-08-15T04:18:43.825Z,20.60
2022-08-15T04:19:48.385Z,20.64
2022-08-15T04:20:51.842Z,20.65
2022-08-15T04:21:53.601Z,20.66
2022-08-15T04:22:56.826Z,20.68
2022-08-15T04:24:01.623Z,20.67
2022-08-15T04:25:38.355Z,20.71
2022-08-15T04:26:53.446Z,20.76
2022-08-15T04:27:57.990Z,20.78
2022-08-15T04:28:59.543Z,20.78
2022-08-15T04:30:02.199Z,20.76
2022-08-15T04:31:08.995Z,20.80
2022-08-15T04:32:14.011Z,20.81
2022-08-15T04:34:01.064Z,20.59
2022-08-15T04:34:48.069Z,20.80
2022-08-15T04:36:01.573Z,20.79
2022-08-15T04:37:12.250Z,20.80
2022-08-15T04:38:16.399Z,20.80
2022-08-15T04:39:18.220Z,20.83
2022-08-15T04:41:19.450Z,20.85
2022-08-15T04:41:50.364Z,20.84
2022-08-15T04:42:59.403Z,20.83
2022-08-15T04:44:01.773Z,20.83
2022-08-15T04:45:06.095Z,20.86
2022-08-15T04:46:26.035Z,20.84
2022-08-15T04:47:35.801Z,20.87
2022-08-15T04:48:38.222Z,20.82
2022-08-15T04:49:40.425Z,20.82
2022-08-15T04:50:45.502Z,20.81
2022-08-15T04:51:47.116Z,20.81
2022-08-15T04:52:55.423Z,20.82
2022-08-15T04:53:57.050Z,20.82
2022-08-15T04:54:59.532Z,20.82
2022-08-15T04:56:03.706Z,20.85
2022-08-15T04:57:06.115Z,20.88
2022-08-15T04:58:42.663Z,20.92
2022-08-15T04:59:35.118Z,20.95
2022-08-15T05:00:41.773Z,20.93
2022-08-15T05:02:04.020Z,20.99
2022-08-15T05:03:08.645Z,21.02
2022-08-15T05:04:26.016Z,20.99
2022-08-15T05:05:37.266Z,20.96
2022-08-15T05:06:40.028Z,20.95
2022-08-15T05:07:59.041Z,20.88
2022-08-15T05:09:01.227Z,20.84
2022-08-15T05:10:11.979Z,20.79
2022-08-15T05:11:16.907Z,20.82
2022-08-15T05:12:23.295Z,20.81
2022-08-15T05:13:31.064Z,20.79
2022-08-15T05:14:36.240Z,20.77
2022-08-15T05:15:48.323Z,20.76
2022-08-15T05:16:55.135Z,20.74
2022-08-15T05:17:58.344Z,20.73
2022-08-15T05:19:00.679Z,20.71
2022-08-15T05:20:07.583Z,20.68
2022-08-15T05:21:11.473Z,20.64
2022-08-15T05:22:13.473Z,20.58
2022-08-15T05:23:18.464Z,20.57
2022-08-15T05:24:36.361Z,20.53
2022-08-15T05:25:42.414Z,20.50
2022-08-15T05:26:57.160Z,20.50
2022-08-15T05:28:00.920Z,20.50
2022-08-15T05:29:22.474Z,20.51
2022-08-15T05:30:29.184Z,20.51
2022-08-15T05:31:33.544Z,20.49
2022-08-15T05:32:35.368Z,20.51
2022-08-15T05:33:56.414Z,20.52
2022-08-15T05:34:59.229Z,20.53
2022-08-15T05:36:03.941Z,20.53
2022-08-15T05:37:06.203Z,20.53
2022-08-15T05:38:22.785Z,20.57
2022-08-15T05:39:35.166Z,20.59
2022-08-15T05:40:58.386Z,20.59
2022-08-15T05:42:30.441Z,20.53
2022-08-15T05:44:02.568Z,20.49
2022-08-15T05:45:38.833Z,20.51
2022-08-15T05:47:22.912Z,20.53
2022-08-15T05:48:35.996Z,20.44
2022-08-15T05:50:02.104Z,20.51
2022-08-15T05:51:14.942Z,20.50
2022-08-15T05:52:40.287Z,20.55
2022-08-15T05:54:19.333Z,20.61
2022-08-15T05:55:36.183Z,20.64
2022-08-15T05:56:50.542Z,20.60
2022-08-15T05:57:52.042Z,20.59
2022-08-15T05:59:04.012Z,20.64
2022-08-15T06:00:12.595Z,20.68
2022-08-15T06:01:36.121Z,20.72
2022-08-15T06:02:50.871Z,20.77
2022-08-15T06:04:08.089Z,20.79
2022-08-15T06:05:35.446Z,20.81
2022-08-15T06:06:46.111Z,20.83
2022-08-15T06:07:56.175Z,20.79
2022-08-15T06:09:17.264Z,20.73
2022-08-15T06:10:36.347Z,20.70
2022-08-15T06:11:46.192Z,20.71
2022-08-15T06:12:50.003Z,20.65
2022-08-15T06:14:00.487Z,20.80
2022-08-15T06:15:12.737Z,20.76
2022-08-15T06:16:46.201Z,20.77
2022-08-15T06:17:55.427Z,20.77
2022-08-15T06:19:02.948Z,20.78
2022-08-15T06:20:24.784Z,20.80
2022-08-15T06:21:45.661Z,20.80
2022-08-15T06:23:11.701Z,20.81
2022-08-15T06:24:26.536Z,20.83
2022-08-15T06:25:57.056Z,20.89
2022-08-15T06:27:08.316Z,20.86
2022-08-15T06:28:52.094Z,20.87
2022-08-15T06:30:01.828Z,20.87
2022-08-15T06:31:39.330Z,20.84
2022-08-15T06:32:58.931Z,20.93
2022-08-15T06:34:07.473Z,21.07
2022-08-15T06:35:40.182Z,21.22
2022-08-15T06:37:14.905Z,21.19
2022-08-15T06:38:54.072Z,21.14
2022-08-15T06:40:08.519Z,21.21
2022-08-15T06:41:25.131Z,21.26
2022-08-15T06:42:36.692Z,21.31
2022-08-15T06:43:39.453Z,21.25
2022-08-15T06:44:43.823Z,21.27
2022-08-15T06:45:50.656Z,21.18
2022-08-15T06:46:57.149Z,21.21
2022-08-15T06:48:59.306Z,21.16
2022-08-15T06:49:52.246Z,21.22
2022-08-15T06:50:58.234Z,21.32
2022-08-15T06:52:10.080Z,21.41
2022-08-15T06:53:34.250Z,21.58
2022-08-15T06:54:41.808Z,21.77
2022-08-15T06:55:55.009Z,22.06
2022-08-15T06:57:35.728Z,22.30
2022-08-15T06:58:56.071Z,22.51
2022-08-15T07:00:34.255Z,22.70
2022-08-15T07:02:16.193Z,22.62
2022-08-15T07:03:36.769Z,22.54
2022-08-15T07:04:53.843Z,22.58
2022-08-15T07:07:17.284Z,22.55
2022-08-15T07:08:34.919Z,22.64
2022-08-15T07:09:46.273Z,22.66
2022-08-15T07:11:09.210Z,22.69
2022-08-15T07:12:35.960Z,22.47
2022-08-15T07:14:20.798Z,22.43
2022-08-15T07:15:37.089Z,22.44
2022-08-15T07:16:54.437Z,22.49
2022-08-15T07:18:03.106Z,22.40
2022-08-15T07:19:06.001Z,22.67
2022-08-15T07:20:37.182Z,23.30
2022-08-15T07:21:53.697Z,24.59
2022-08-15T07:22:53.482Z,25.81
2022-08-15T07:24:33.448Z,26.74
2022-08-15T07:25:34.468Z,27.29
2022-08-15T07:26:57.675Z,26.71
2022-08-15T07:28:03.189Z,25.65
2022-08-15T07:30:31.050Z,24.28
2022-08-15T07:32:04.391Z,23.97
2022-08-15T07:32:57.875Z,23.63
2022-08-15T07:34:30.375Z,24.04
2022-08-15T07:35:35.217Z,24.62
2022-08-15T07:36:39.327Z,25.21
2022-08-15T07:38:21.550Z,25.65
2022-08-15T07:39:35.276Z,26.83
2022-08-15T07:40:40.587Z,27.27
2022-08-15T07:41:54.149Z,27.35
2022-08-15T07:43:00.063Z,27.24
2022-08-15T07:44:20.722Z,26.82
2022-08-15T07:45:40.962Z,26.85
2022-08-15T07:46:55.978Z,27.36
2022-08-15T07:48:07.394Z,27.42
2022-08-15T07:49:22.024Z,26.79
2022-08-15T07:50:38.995Z,26.98
2022-08-15T07:52:43.590Z,27.25
2022-08-15T07:53:55.400Z,28.34
2022-08-15T07:56:14.764Z,27.78
2022-08-15T07:56:53.691Z,27.80
2022-08-15T07:58:03.991Z,27.38
2022-08-15T07:59:25.694Z,26.51
2022-08-15T08:00:39.179Z,26.75
2022-08-15T08:01:54.458Z,27.67
2022-08-15T08:03:05.914Z,28.58
2022-08-15T08:04:23.526Z,29.10
2022-08-15T08:05:30.015Z,29.62
2022-08-15T08:07:33.817Z,29.74
2022-08-15T08:08:49.150Z,29.64
2022-08-15T08:09:57.083Z,29.42
2022-08-15T08:11:10.451Z,29.27
2022-08-15T08:12:56.609Z,29.30
2022-08-15T08:14:40.063Z,28.61
2022-08-15T08:15:59.724Z,28.00
2022-08-15T08:17:22.704Z,27.93
2022-08-15T08:19:05.720Z,27.40
2022-08-15T08:20:21.500Z,28.16
2022-08-15T08:21:34.971Z,28.64
2022-08-15T08:22:55.395Z,28.52
2022-08-15T08:24:03.475Z,28.90
2022-08-15T08:26:01.109Z,29.33
2022-08-15T08:27:03.577Z,30.26
2022-08-15T08:28:51.744Z,30.32
2022-08-15T08:30:04.696Z,30.71
2022-08-15T08:31:39.525Z,29.70
2022-08-15T08:33:03.403Z,29.20
2022-08-15T08:34:38.877Z,29.09
2022-08-15T08:36:35.660Z,29.48
2022-08-15T08:37:42.768Z,29.16
2022-08-15T08:39:22.530Z,29.72
2022-08-15T08:40:49.689Z,29.52
2022-08-15T08:42:13.655Z,29.88
2022-08-15T08:43:50.425Z,29.65
2022-08-15T08:45:25.673Z,29.30
2022-08-15T08:46:56.666Z,29.59
2022-08-15T08:48:01.318Z,29.81
2022-08-15T08:49:17.031Z,29.58
2022-08-15T08:50:44.724Z,29.99
2022-08-15T08:52:26.621Z,29.64
2022-08-15T08:53:35.190Z,29.40
2022-08-15T08:55:00.209Z,29.64
2022-08-15T08:56:31.157Z,29.21
2022-08-15T08:57:39.301Z,29.51
2022-08-15T08:58:49.759Z,28.58
2022-08-15T09:00:00.816Z,27.77
2022-08-15T09:01:03.880Z,26.73
2022-08-15T09:02:20.795Z,26.71
2022-08-15T09:03:43.108Z,25.79
2022-08-15T09:04:50.708Z,25.85
2022-08-15T09:05:55.565Z,25.66
2022-08-15T09:07:00.664Z,25.81
2022-08-15T09:08:12.153Z,25.98
2022-08-15T09:09:20.433Z,26.04
2022-08-15T09:10:35.389Z,26.07
2022-08-15T09:11:37.105Z,26.48
2022-08-15T09:13:08.819Z,26.75
2022-08-15T09:14:31.643Z,26.83
2022-08-15T09:15:46.462Z,26.56
2022-08-15T09:16:59.572Z,26.80
2022-08-15T09:18:22.914Z,27.16
2022-08-15T09:19:37.585Z,27.33
2022-08-15T09:20:41.511Z,27.32
2022-08-15T09:21:45.271Z,27.40
2022-08-15T09:22:53.208Z,27.20
2022-08-15T09:24:00.152Z,27.28
2022-08-15T09:25:07.553Z,27.52
2022-08-15T09:26:19.592Z,27.86
2022-08-15T09:27:56.047Z,28.04
2022-08-15T09:29:19.871Z,28.43
2022-08-15T09:30:45.353Z,28.48
2022-08-15T09:32:00.103Z,28.52
2022-08-15T09:33:30.243Z,27.89
2022-08-15T09:34:39.849Z,27.37
2022-08-15T09:36:07.168Z,27.23
2022-08-15T09:37:18.762Z,26.76
2022-08-15T09:38:52.328Z,26.43
2022-08-15T09:40:01.077Z,26.69
2022-08-15T09:41:24.995Z,27.58
2022-08-15T09:42:50.075Z,28.83
2022-08-15T09:44:36.452Z,30.16
2022-08-15T09:45:59.903Z,31.24
2022-08-15T09:47:01.955Z,31.73
2022-08-15T09:48:24.711Z,32.58
2022-08-15T09:49:49.710Z,32.60
2022-08-15T09:51:17.382Z,33.08
2022-08-15T09:53:01.041Z,33.58
2022-08-15T09:54:24.929Z,33.45
2022-08-15T09:55:45.789Z,32.23
2022-08-15T09:56:48.472Z,32.87
2022-08-15T09:57:54.318Z,33.65
2022-08-15T09:59:19.688Z,33.92
2022-08-15T10:00:41.050Z,34.22
2022-08-15T10:01:57.765Z,33.88
2022-08-15T10:03:02.868Z,32.65
2022-08-15T10:04:22.079Z,31.80
2022-08-15T10:06:34.513Z,31.37
2022-08-15T10:07:32.503Z,31.46
2022-08-15T10:08:52.558Z,31.19
2022-08-15T10:10:00.519Z,31.10
2022-08-15T10:11:13.506Z,30.88
2022-08-15T10:12:17.168Z,31.36
2022-08-15T10:13:45.167Z,32.46
2022-08-15T10:14:53.738Z,32.71
2022-08-15T10:15:57.554Z,32.92
2022-08-15T10:17:22.994Z,33.49
2022-08-15T10:18:29.473Z,33.62
2022-08-15T10:20:00.384Z,34.14
2022-08-15T10:21:17.847Z,34.06
2022-08-15T10:22:23.491Z,33.68
2022-08-15T10:23:59.210Z,33.41
2022-08-15T10:25:25.365Z,33.32
2022-08-15T10:26:33.346Z,33.87
2022-08-15T10:28:37.047Z,34.42
2022-08-15T10:29:34.042Z,35.09
2022-08-15T10:30:44.692Z,34.25
2022-08-15T10:32:38.509Z,33.54
2022-08-15T10:33:36.927Z,33.54
2022-08-15T10:34:58.420Z,34.19
2022-08-15T10:36:28.931Z,34.78
2022-08-15T10:37:58.827Z,34.92
2022-08-15T10:39:10.115Z,35.74
2022-08-15T10:40:43.707Z,36.32
2022-08-15T10:42:22.051Z,36.17
2022-08-15T10:43:54.738Z,36.16
2022-08-15T10:45:13.060Z,36.06
2022-08-15T10:46:46.872Z,36.31
2022-08-15T10:48:02.415Z,36.68
2022-08-15T10:49:31.239Z,36.65
2022-08-15T10:50:54.251Z,37.17
2022-08-15T10:52:02.980Z,36.90
2022-08-15T10:53:23.309Z,36.13
2022-08-15T10:54:56.425Z,37.09
2022-08-15T10:57:05.614Z,37.58
2022-08-15T10:57:48.530Z,37.49
2022-08-15T10:58:51.603Z,36.88
2022-08-15T10:59:57.557Z,37.27
2022-08-15T11:01:10.704Z,37.74
2022-08-15T11:02:43.618Z,38.34
2022-08-15T11:04:48.260Z,38.95
2022-08-15T11:05:15.434Z,38.97
2022-08-15T11:06:26.751Z,38.84
2022-08-15T11:07:29.722Z,38.77
2022-08-15T11:08:31.586Z,39.12
2022-08-15T11:09:33.108Z,39.18
2022-08-15T11:10:41.186Z,39.58
2022-08-15T11:12:14.019Z,39.23
2022-08-15T11:13:24.400Z,39.43
2022-08-15T11:14:30.536Z,39.64
2022-08-15T11:15:46.698Z,39.76
2022-08-15T11:16:52.526Z,39.92
2022-08-15T11:18:20.134Z,40.00
2022-08-15T11:20:07.890Z,39.04
2022-08-15T11:21:18.732Z,38.70
2022-08-15T11:22:31.175Z,38.78
2022-08-15T11:23:43.064Z,38.81
2022-08-15T11:24:58.060Z,39.10
2022-08-15T11:26:01.848Z,39.05
2022-08-15T11:27:12.811Z,39.30
2022-08-15T11:28:55.057Z,39.36
2022-08-15T11:29:56.822Z,38.16
2022-08-15T11:31:08.751Z,37.22
2022-08-15T11:32:24.428Z,36.87
2022-08-15T11:33:42.925Z,37.00
2022-08-15T11:34:47.851Z,37.36
2022-08-15T11:36:17.664Z,37.80
2022-08-15T11:37:22.899Z,38.35
2022-08-15T11:38:24.654Z,38.96
2022-08-15T11:39:32.502Z,39.45
2022-08-15T11:40:40.217Z,40.05
2022-08-15T11:41:50.209Z,40.24
2022-08-15T11:42:57.898Z,40.59
2022-08-15T11:44:10.026Z,40.82
2022-08-15T11:45:19.734Z,40.55
2022-08-15T11:46:31.182Z,41.41
2022-08-15T11:47:36.286Z,41.68
2022-08-15T11:48:40.622Z,41.47
2022-08-15T11:49:51.804Z,40.88
2022-08-15T11:51:06.521Z,41.22
2022-08-15T11:52:41.305Z,40.39
2022-08-15T11:53:40.116Z,39.07
2022-08-15T11:54:41.646Z,37.35
2022-08-15T11:55:48.084Z,36.53
2022-08-15T11:56:57.177Z,35.76
2022-08-15T11:58:13.680Z,35.03
2022-08-15T11:59:19.779Z,35.14
2022-08-15T12:00:36.211Z,36.17
2022-08-15T12:03:04.249Z,37.65
2022-08-15T12:04:40.878Z,38.65
2022-08-15T12:05:42.422Z,39.67
2022-08-15T12:06:51.175Z,39.37
2022-08-15T12:08:01.855Z,39.47
2022-08-15T12:09:43.538Z,39.78
2022-08-15T12:11:02.877Z,39.26
2022-08-15T12:12:33.373Z,39.13
2022-08-15T12:13:11.743Z,36.99
2022-08-15T12:13:37.625Z,39.67
2022-08-15T12:14:48.263Z,40.29
2022-08-15T12:15:54.844Z,40.25
2022-08-15T12:17:04.965Z,40.26
2022-08-15T12:18:31.824Z,40.41
2022-08-15T12:20:25.116Z,40.39
2022-08-15T12:21:12.973Z,40.17
2022-08-15T12:22:44.808Z,39.74
2022-08-15T12:24:00.609Z,39.43
2022-08-15T12:25:06.980Z,38.94
2022-08-15T12:26:39.844Z,39.07
2022-08-15T12:27:45.158Z,39.26
2022-08-15T12:28:56.009Z,39.29
2022-08-15T12:29:57.600Z,38.46
2022-08-15T12:31:21.796Z,38.15
2022-08-15T12:32:35.624Z,37.31
2022-08-15T12:33:39.271Z,37.32
2022-08-15T12:34:55.522Z,37.64
2022-08-15T12:36:03.334Z,37.92
2022-08-15T12:37:11.499Z,37.42
2022-08-15T12:38:39.299Z,37.38
2022-08-15T12:39:47.230Z,35.54
2022-08-15T12:41:15.143Z,35.87
2022-08-15T12:42:50.122Z,35.76
2022-08-15T12:43:39.435Z,35.79
2022-08-15T12:44:48.498Z,35.35
2022-08-15T12:45:51.015Z,35.96
2022-08-15T12:46:54.829Z,36.03
2022-08-15T12:48:06.741Z,35.84
2022-08-15T12:49:09.681Z,34.87
2022-08-15T12:50:13.616Z,34.47
2022-08-15T12:51:16.484Z,34.78
2022-08-15T12:52:26.318Z,35.30
2022-08-15T12:53:28.386Z,34.90
2022-08-15T12:54:30.306Z,34.92
2022-08-15T12:55:41.191Z,34.64
2022-08-15T12:56:47.829Z,34.58
2022-08-15T12:57:55.164Z,34.06
2022-08-15T12:59:02.476Z,33.40
2022-08-15T13:00:07.569Z,32.84
2022-08-15T13:01:32.274Z,32.31
2022-08-15T13:02:47.590Z,31.02
2022-08-15T13:04:01.601Z,30.02
2022-08-15T13:05:12.632Z,29.43
2022-08-15T13:06:56.088Z,29.04
2022-08-15T13:08:06.097Z,29.12
2022-08-15T13:09:26.370Z,28.65
2022-08-15T13:11:01.520Z,27.56
2022-08-15T13:11:52.134Z,27.01
2022-08-15T13:12:54.031Z,27.31
2022-08-15T13:13:55.614Z,27.40
2022-08-15T13:14:57.323Z,27.56
2022-08-15T13:15:58.854Z,27.82
2022-08-15T13:17:10.358Z,27.88
2022-08-15T13:18:27.080Z,27.99
2022-08-15T13:19:33.156Z,28.30
2022-08-15T13:21:04.944Z,28.45
2022-08-15T13:22:32.997Z,28.49
2022-08-15T13:23:40.718Z,28.38
2022-08-15T13:25:01.321Z,28.05
2022-08-15T13:26:28.160Z,27.69
2022-08-15T13:27:28.702Z,27.60
2022-08-15T13:28:33.789Z,27.70
2022-08-15T13:29:55.694Z,27.32
2022-08-15T13:31:01.996Z,27.65
2022-08-15T13:32:12.719Z,27.07
2022-08-15T13:33:14.959Z,27.37
2022-08-15T13:34:21.061Z,27.40
2022-08-15T13:35:28.974Z,27.74
2022-08-15T13:36:33.155Z,28.26
2022-08-15T13:37:59.281Z,28.48
2022-08-15T13:38:58.032Z,29.32
2022-08-15T13:40:02.264Z,30.18
2022-08-15T13:41:07.060Z,30.69
2022-08-15T13:42:35.716Z,30.95
2022-08-15T13:43:56.545Z,30.75
2022-08-15T13:45:00.420Z,29.97
2022-08-15T13:46:02.677Z,30.05
2022-08-15T13:47:09.586Z,29.72
2022-08-15T13:48:26.247Z,30.06
2022-08-15T13:49:40.388Z,29.86
2022-08-15T13:50:42.739Z,29.80
2022-08-15T13:52:23.606Z,29.81
2022-08-15T13:53:13.663Z,29.35
2022-08-15T13:54:31.080Z,28.62
2022-08-15T13:55:35.122Z,28.27
2022-08-15T13:56:38.366Z,27.78
2022-08-15T13:57:43.591Z,27.83
2022-08-15T13:59:11.984Z,27.50
2022-08-15T14:00:57.318Z,26.63
2022-08-15T14:01:37.872Z,26.07
2022-08-15T14:02:45.609Z,26.13
2022-08-15T14:03:57.991Z,26.05
2022-08-15T14:05:03.575Z,25.94
2022-08-15T14:06:06.152Z,25.91
2022-08-15T14:07:12.408Z,25.21
2022-08-15T14:08:27.957Z,24.99
2022-08-15T14:10:04.323Z,24.79
2022-08-15T14:11:13.353Z,25.14
2022-08-15T14:12:14.882Z,24.99
2022-08-15T14:13:18.561Z,24.82
2022-08-15T14:14:36.746Z,24.17
2022-08-15T14:16:07.417Z,24.40
2022-08-15T14:17:01.856Z,24.59
2022-08-15T14:18:50.399Z,24.41
2022-08-15T14:20:00.235Z,24.05
2022-08-15T14:20:47.576Z,23.79
2022-08-15T14:21:57.440Z,23.77
2022-08-15T14:22:59.744Z,23.55
2022-08-15T14:24:03.025Z,23.81
2022-08-15T14:25:14.731Z,23.98
2022-08-15T14:27:09.091Z,23.93
2022-08-15T14:27:54.280Z,24.17
2022-08-15T14:28:59.944Z,24.29
2022-08-15T14:30:06.450Z,24.30
2022-08-15T14:33:57.719Z,23.99
2022-08-15T14:35:17.091Z,23.86
2022-08-15T14:36:29.293Z,23.77
2022-08-15T14:37:46.875Z,23.88
2022-08-15T14:38:48.707Z,23.92
2022-08-15T14:39:51.998Z,23.94
2022-08-15T14:40:55.332Z,23.52
2022-08-15T14:41:58.422Z,23.55
2022-08-15T14:43:02.953Z,23.63
2022-08-15T14:44:06.312Z,23.63
2022-08-15T14:45:16.623Z,23.25
2022-08-15T14:46:33.425Z,23.50
2022-08-15T14:47:38.913Z,23.17
2022-08-15T14:48:47.062Z,22.99
2022-08-15T14:50:53.247Z,22.93
2022-08-15T14:51:23.184Z,22.64
2022-08-15T14:52:40.250Z,22.48
2022-08-15T14:53:44.225Z,22.06
2022-08-15T14:54:47.979Z,21.87
2022-08-15T14:55:52.296Z,21.74
2022-08-15T14:56:56.656Z,21.63
2022-08-15T14:58:00.284Z,21.40
2022-08-15T14:59:06.793Z,21.43
2022-08-15T15:00:24.765Z,21.47
2022-08-15T15:01:30.209Z,21.28
2022-08-15T15:02:35.927Z,21.23
2022-08-15T15:03:38.330Z,20.94
2022-08-15T15:04:40.593Z,20.84
2022-08-15T15:06:05.469Z,20.77
2022-08-15T15:07:05.656Z,20.74
2022-08-15T15:08:19.875Z,20.66
2022-08-15T15:09:26.074Z,20.52
2022-08-15T15:10:30.714Z,20.49
2022-08-15T15:11:32.413Z,20.54
2022-08-15T15:12:42.672Z,20.47
2022-08-15T15:13:47.306Z,20.46
2022-08-15T15:14:49.015Z,20.44
2022-08-15T15:16:38.996Z,20.41
2022-08-15T15:17:15.854Z,20.24
2022-08-15T15:18:39.150Z,19.82
2022-08-15T15:19:47.438Z,20.00
2022-08-15T15:20:57.586Z,20.05
2022-08-15T15:21:59.236Z,20.10
2022-08-15T15:23:01.151Z,20.27
2022-08-15T15:24:05.039Z,20.35
2022-08-15T15:25:06.957Z,20.60
2022-08-15T15:26:11.561Z,20.68
2022-08-15T15:27:17.493Z,20.84
2022-08-15T15:28:35.641Z,20.73
2022-08-15T15:29:46.801Z,20.44
2022-08-15T15:30:48.998Z,20.41
2022-08-15T15:31:56.728Z,20.23
2022-08-15T15:32:58.460Z,20.34
2022-08-15T15:34:05.505Z,20.32
2022-08-15T15:35:10.590Z,20.10
2022-08-15T15:36:28.848Z,20.26
2022-08-15T15:37:33.150Z,20.19
2022-08-15T15:38:39.134Z,19.88
2022-08-15T15:39:45.599Z,19.87
2022-08-15T15:40:49.222Z,20.11
2022-08-15T15:41:51.189Z,20.14
2022-08-15T15:42:53.412Z,20.10
2022-08-15T15:43:56.812Z,20.15
2022-08-15T15:45:01.251Z,19.87
2022-08-15T15:46:04.120Z,20.33
2022-08-15T15:47:08.559Z,20.46